Time;durP1;ratioP1;P1;durP2;ratioP2;P2;SDS_P1;SDS_P2;PMS_P1;PMS_P2;Temp;Humidity;BMP_temperature;BMP_pressure;BME280_temperature;BME280_humidity;BME280_pressure;Samples;Min_cycle;Max_cycle;Signal;HPM_P1;HPM_P2
2022/12/23 00:02:01;;;;;;;54.97;30.13;;;8.30;99.90;;;;;;5035589;28;20693;-74
2022/12/23 00:04:30;;;;;;;44.65;28.67;;;8.30;99.90;;;;;;5034542;28;20299;-74
2022/12/23 00:06:58;;;;;;;48.90;27.83;;;8.40;99.90;;;;;;5037375;28;20300;-76
2022/12/23 00:09:25;;;;;;;51.75;30.40;;;8.40;99.90;;;;;;5035996;28;20266;-75
2022/12/23 00:17:20;;;;;;;45.50;27.00;;;8.50;99.90;;;;;;5027156;28;20650;-72
2022/12/23 00:19:49;;;;;;;49.15;29.60;;;8.50;99.90;;;;;;5032987;28;20312;-76
2022/12/23 00:22:16;;;;;;;48.08;29.48;;;8.60;99.90;;;;;;5033900;28;20291;-75
2022/12/23 00:24:42;;;;;;;38.63;25.55;;;8.70;99.90;;;;;;5034223;28;20220;-75
2022/12/23 00:27:09;;;;;;;46.40;29.02;;;8.70;99.90;;;;;;5034766;28;20200;-74
2022/12/23 00:29:36;;;;;;;45.33;28.08;;;8.80;99.90;;;;;;5034713;28;20320;-74
2022/12/23 00:32:03;;;;;;;50.20;28.35;;;8.70;99.90;;;;;;5032499;28;20208;-75
2022/12/23 00:34:30;;;;;;;44.97;26.50;;;8.80;99.90;;;;;;5035450;28;20208;-75
2022/12/23 00:36:58;;;;;;;47.47;31.27;;;8.80;99.90;;;;;;5038864;28;20738;-75
2022/12/23 00:45:14;;;;;;;50.40;29.48;;;8.60;99.90;;;;;;5034564;28;20207;-75
2022/12/23 00:50:25;;;;;;;45.67;30.75;;;8.60;99.90;;;;;;5034269;28;20631;-72
2022/12/23 00:52:53;;;;;;;61.90;35.50;;;8.70;99.90;;;;;;5036338;28;20749;-75
2022/12/23 00:55:20;;;;;;;65.13;33.63;;;8.60;99.90;;;;;;5031860;28;20662;-74
2022/12/23 00:57:47;;;;;;;52.70;31.50;;;8.70;99.90;;;;;;5042443;28;20232;-76
2022/12/23 01:00:15;;;;;;;70.95;36.63;;;8.70;99.90;;;;;;5036493;28;20246;-75
2022/12/23 01:05:36;;;;;;;86.47;37.08;;;8.50;99.90;;;;;;5023929;28;20191;-75
2022/12/23 01:08:05;;;;;;;75.20;37.35;;;8.50;99.90;;;;;;5031065;28;20243;-74
2022/12/23 01:10:34;;;;;;;80.95;37.50;;;8.50;99.90;;;;;;5027941;28;20271;-75
2022/12/23 01:13:01;;;;;;;72.50;36.30;;;8.40;99.90;;;;;;5033293;28;20207;-74
2022/12/23 01:15:29;;;;;;;69.57;37.20;;;8.40;99.90;;;;;;5041526;28;20666;-75
2022/12/23 01:17:57;;;;;;;81.18;40.67;;;8.40;99.90;;;;;;5042366;28;20223;-72
2022/12/23 01:20:24;;;;;;;84.40;40.70;;;8.40;99.90;;;;;;5034157;28;20220;-76
2022/12/23 01:22:51;;;;;;;83.50;37.65;;;8.40;99.90;;;;;;5030437;28;20201;-74
2022/12/23 01:25:19;;;;;;;72.88;38.17;;;8.40;99.90;;;;;;5036205;28;20722;-77
2022/12/23 01:27:46;;;;;;;65.97;35.67;;;8.40;99.90;;;;;;5034120;28;20714;-76
2022/12/23 01:30:13;;;;;;;83.72;40.53;;;8.40;99.90;;;;;;5038198;28;20255;-74
2022/12/23 01:32:41;;;;;;;56.80;32.92;;;8.40;99.90;;;;;;5037163;28;20199;-71
2022/12/23 01:35:08;;;;;;;65.32;36.00;;;8.60;99.90;;;;;;5040628;28;20298;-75
2022/12/23 01:37:35;;;;;;;71.63;37.30;;;8.60;99.90;;;;;;5036600;28;20761;-75
2022/12/23 01:40:02;;;;;;;50.30;32.17;;;8.50;99.90;;;;;;5031159;28;20263;-74
2022/12/23 01:42:45;;;;;;;53.88;31.35;;;8.60;99.90;;;;;;5031916;28;20235;-74
2022/12/23 01:45:19;;;;;;;50.55;30.20;;;8.80;99.90;;;;;;5034938;28;20203;-76
2022/12/23 01:47:51;;;;;;;63.67;33.38;;;8.80;99.90;;;;;;5026541;28;20301;-74
2022/12/23 01:50:22;;;;;;;54.60;30.55;;;8.80;99.90;;;;;;5038577;28;20311;-75
2022/12/23 01:52:55;;;;;;;56.13;33.78;;;8.80;99.90;;;;;;5035092;28;20196;-76
2022/12/23 01:55:25;;;;;;;56.30;32.70;;;8.80;99.90;;;;;;5035319;28;20279;-75
2022/12/23 01:57:56;;;;;;;62.42;31.63;;;8.70;99.90;;;;;;5034786;28;20283;-73
2022/12/23 02:09:15;;;;;;;63.78;34.80;;;8.60;99.90;;;;;;5034081;28;20203;-76
2022/12/23 02:11:43;;;;;;;61.03;34.58;;;8.60;99.90;;;;;;5029714;28;20235;-73
2022/12/23 02:17:24;;;;;;;61.72;31.80;;;8.60;99.90;;;;;;5041933;28;20668;-75
2022/12/23 02:20:28;;;;;;;71.45;33.35;;;8.60;99.90;;;;;;5030014;28;20702;-73
2022/12/23 02:23:23;;;;;;;64.45;33.95;;;8.60;99.90;;;;;;5021818;28;20216;-72
2022/12/23 02:26:04;;;;;;;65.72;35.40;;;8.60;99.90;;;;;;5033348;28;20258;-72
2022/12/23 02:28:56;;;;;;;66.50;33.28;;;8.60;99.90;;;;;;5029752;28;20214;-73
2022/12/23 02:31:29;;;;;;;60.47;35.78;;;8.60;99.90;;;;;;5030841;28;20686;-73
2022/12/23 02:34:02;;;;;;;62.53;34.20;;;8.60;99.90;;;;;;5031134;28;20569;-75
2022/12/23 02:36:38;;;;;;;61.05;31.05;;;8.60;99.90;;;;;;5033064;28;20222;-75
2022/12/23 02:39:10;;;;;;;50.25;32.35;;;8.60;99.90;;;;;;5031878;28;20227;-76
2022/12/23 02:41:46;;;;;;;63.72;31.90;;;8.70;99.90;;;;;;5033358;28;20200;-76
2022/12/23 02:44:21;;;;;;;66.38;31.88;;;8.70;99.90;;;;;;5026661;28;20294;-73
2022/12/23 02:46:52;;;;;;;68.53;35.80;;;8.60;99.90;;;;;;5033527;28;20199;-73
2022/12/23 02:49:24;;;;;;;68.13;36.70;;;8.60;99.90;;;;;;5062780;23;20239;-85
2022/12/23 02:52:12;;;;;;;106.03;37.20;;;8.60;99.90;;;;;;5047616;28;20244;-85
2022/12/23 02:54:46;;;;;;;90.03;36.80;;;8.60;99.90;;;;;;5054104;28;20258;-85
2022/12/23 02:57:18;;;;;;;82.60;36.92;;;8.40;99.90;;;;;;5057789;28;20211;-84
2022/12/23 02:59:48;;;;;;;100.55;40.83;;;8.40;99.90;;;;;;5057854;28;20204;-83
2022/12/23 03:02:17;;;;;;;79.45;38.13;;;8.40;99.90;;;;;;5057833;28;20180;-85
2022/12/23 03:04:44;;;;;;;92.60;38.65;;;8.40;99.90;;;;;;5057681;28;20291;-84
2022/12/23 03:07:17;;;;;;;68.65;33.42;;;8.40;99.90;;;;;;5022219;28;20734;-85
2022/12/23 03:09:51;;;;;;;83.70;36.17;;;8.40;99.90;;;;;;5020198;28;20231;-85
2022/12/23 03:12:26;;;;;;;69.45;34.63;;;8.40;99.90;;;;;;5019689;28;20254;-85
2022/12/23 03:15:12;;;;;;;81.15;36.20;;;8.40;99.90;;;;;;5016630;28;20193;-85
2022/12/23 03:17:55;;;;;;;76.90;35.42;;;8.40;99.90;;;;;;5015660;28;20189;-85
2022/12/23 03:20:27;;;;;;;73.65;35.88;;;8.40;99.90;;;;;;5025114;28;20240;-85
2022/12/23 03:23:01;;;;;;;61.05;34.28;;;8.50;99.90;;;;;;5040013;28;20255;-85
2022/12/23 03:25:33;;;;;;;88.60;36.90;;;8.50;99.90;;;;;;5039687;28;20203;-85
2022/12/23 03:28:05;;;;;;;76.50;35.75;;;8.50;99.90;;;;;;5033025;28;20256;-85
2022/12/23 03:30:34;;;;;;;71.10;36.67;;;8.60;99.90;;;;;;5048589;28;20232;-85
2022/12/23 03:33:07;;;;;;;70.13;33.83;;;8.60;99.90;;;;;;5038296;28;20233;-84
2022/12/23 03:35:40;;;;;;;73.53;35.80;;;8.60;99.90;;;;;;5028350;28;20213;-84
2022/12/23 03:38:10;;;;;;;65.95;34.80;;;8.70;99.90;;;;;;5028583;28;20191;-85
2022/12/23 03:40:41;;;;;;;70.50;35.42;;;8.80;99.90;;;;;;5028457;28;20284;-85
2022/12/23 03:43:14;;;;;;;84.05;35.90;;;8.70;99.90;;;;;;5033003;28;20236;-85
2022/12/23 03:45:52;;;;;;;71.93;35.58;;;8.80;99.90;;;;;;5040917;28;20241;-84
2022/12/23 03:48:23;;;;;;;71.18;32.92;;;8.80;99.90;;;;;;5046323;28;20196;-85
2022/12/23 03:50:55;;;;;;;64.80;33.03;;;8.80;99.90;;;;;;5060335;28;20223;-85
2022/12/23 03:53:27;;;;;;;68.90;34.45;;;8.80;99.90;;;;;;5076013;28;20227;-85
2022/12/23 03:55:58;;;;;;;71.40;34.00;;;8.80;99.90;;;;;;5079852;28;20219;-85
2022/12/23 03:58:33;;;;;;;76.57;33.90;;;8.70;99.90;;;;;;5069101;28;20193;-85
2022/12/23 04:01:09;;;;;;;80.57;36.40;;;8.60;99.90;;;;;;5043765;28;20173;-85
2022/12/23 04:03:48;;;;;;;75.10;33.55;;;8.50;99.90;;;;;;5040217;28;20169;-84
2022/12/23 04:06:17;;;;;;;79.43;34.35;;;8.50;99.90;;;;;;5058374;28;20191;-85
2022/12/23 04:08:46;;;;;;;82.47;35.50;;;8.50;99.90;;;;;;5059901;28;20196;-85
2022/12/23 04:11:13;;;;;;;89.75;36.63;;;8.50;99.90;;;;;;5058717;28;20220;-85
2022/12/23 04:13:40;;;;;;;90.22;34.63;;;8.60;99.90;;;;;;5053670;28;20188;-85
2022/12/23 04:16:08;;;;;;;82.38;35.78;;;8.60;99.90;;;;;;5044380;28;20429;-85
2022/12/23 04:18:34;;;;;;;65.25;31.25;;;8.50;99.90;;;;;;5049390;28;20209;-85
2022/12/23 04:21:03;;;;;;;75.68;33.67;;;8.60;99.90;;;;;;5051739;28;20192;-85
2022/12/23 04:23:30;;;;;;;61.83;30.38;;;8.70;99.90;;;;;;5059734;28;20195;-85
2022/12/23 04:25:57;;;;;;;63.78;31.05;;;8.70;99.90;;;;;;5048931;28;20212;-85
2022/12/23 04:28:23;;;;;;;72.32;32.55;;;8.70;99.90;;;;;;5053635;28;20220;-85
2022/12/23 04:30:50;;;;;;;67.35;34.53;;;8.70;99.90;;;;;;5040477;28;21425;-85
2022/12/23 04:33:17;;;;;;;82.40;34.25;;;8.80;99.90;;;;;;5059260;28;20172;-85
2022/12/23 04:35:44;;;;;;;76.53;34.47;;;8.70;99.90;;;;;;5057013;28;20177;-85
2022/12/23 04:38:12;;;;;;;77.13;32.90;;;8.70;99.90;;;;;;5039635;28;20213;-85
2022/12/23 04:40:39;;;;;;;79.93;32.63;;;8.70;99.90;;;;;;5055296;28;20223;-85
2022/12/23 04:43:06;;;;;;;77.15;34.80;;;8.60;99.90;;;;;;5058996;28;20205;-85
2022/12/23 04:45:33;;;;;;;82.10;34.85;;;8.60;99.90;;;;;;5050445;28;20197;-85
2022/12/23 04:48:00;;;;;;;85.90;33.28;;;8.60;99.90;;;;;;5052074;28;20196;-85
2022/12/23 04:50:26;;;;;;;82.25;32.55;;;8.60;99.90;;;;;;5058533;28;20216;-85
2022/12/23 04:52:53;;;;;;;84.95;34.33;;;8.60;99.90;;;;;;5044348;28;20216;-84
2022/12/23 04:55:21;;;;;;;78.25;33.80;;;8.60;99.90;;;;;;5057952;28;20219;-85
2022/12/23 04:57:48;;;;;;;69.03;31.23;;;8.60;99.90;;;;;;5056763;28;20227;-86
2022/12/23 05:00:16;;;;;;;88.40;33.60;;;8.70;99.90;;;;;;5054357;28;20255;-86
2022/12/23 05:02:43;;;;;;;71.93;32.40;;;8.60;99.90;;;;;;5053433;28;20263;-85
2022/12/23 05:05:10;;;;;;;72.10;33.38;;;8.60;99.90;;;;;;5053237;28;20215;-86
2022/12/23 05:07:37;;;;;;;69.03;31.88;;;8.60;99.90;;;;;;5056137;28;20211;-86
2022/12/23 05:10:04;;;;;;;65.78;31.63;;;8.60;99.90;;;;;;5058402;28;20207;-85
2022/12/23 05:12:32;;;;;;;76.35;33.25;;;8.60;99.90;;;;;;5058586;28;20254;-86
2022/12/23 05:14:59;;;;;;;58.20;31.02;;;8.60;99.90;;;;;;5045252;28;20192;-85
2022/12/23 05:17:26;;;;;;;78.57;32.08;;;8.60;99.90;;;;;;5042832;28;20192;-85
2022/12/23 05:19:53;;;;;;;83.45;36.78;;;8.60;99.90;;;;;;5051314;28;20239;-85
2022/12/23 05:22:20;;;;;;;90.00;36.60;;;8.60;99.90;;;;;;5042744;28;20192;-86
2022/12/23 05:24:47;;;;;;;81.40;33.83;;;8.50;99.90;;;;;;5039448;28;20295;-86
2022/12/23 05:27:14;;;;;;;103.88;38.70;;;8.50;99.90;;;;;;5038208;28;20342;-86
2022/12/23 05:29:42;;;;;;;99.88;38.92;;;8.40;99.90;;;;;;5038299;28;20220;-86
2022/12/23 05:32:09;;;;;;;91.70;41.53;;;8.50;99.90;;;;;;5034090;28;20307;-86
2022/12/23 05:34:36;;;;;;;104.32;38.83;;;8.40;99.90;;;;;;5024188;28;20200;-86
2022/12/23 05:37:02;;;;;;;106.53;40.17;;;8.50;99.90;;;;;;5018121;28;20292;-86
2022/12/23 05:39:29;;;;;;;106.38;38.45;;;8.50;99.90;;;;;;5016635;28;20225;-85
2022/12/23 05:41:56;;;;;;;87.70;38.30;;;8.40;99.90;;;;;;5016199;28;20255;-85
2022/12/23 05:44:23;;;;;;;128.57;40.55;;;8.50;99.90;;;;;;5015958;28;20287;-85
2022/12/23 05:46:51;;;;;;;85.68;35.80;;;8.50;99.90;;;;;;5024791;28;20232;-86
2022/12/23 05:49:18;;;;;;;79.82;36.13;;;8.50;99.90;;;;;;5018553;28;20264;-86
2022/12/23 05:51:45;;;;;;;91.72;36.80;;;8.50;99.90;;;;;;5019246;28;20220;-86
2022/12/23 05:54:12;;;;;;;106.30;39.85;;;8.50;99.90;;;;;;5042526;28;20287;-86
2022/12/23 05:56:39;;;;;;;112.38;42.15;;;8.50;99.90;;;;;;5056103;28;20208;-86
2022/12/23 05:59:06;;;;;;;105.45;39.47;;;8.40;99.90;;;;;;5040316;28;20319;-86
2022/12/23 06:01:33;;;;;;;117.80;42.40;;;8.40;99.90;;;;;;5037064;28;20656;-86
2022/12/23 06:04:01;;;;;;;120.72;45.17;;;8.30;99.90;;;;;;5036753;28;20295;-86
2022/12/23 06:06:28;;;;;;;103.32;38.10;;;8.20;99.90;;;;;;5030650;28;20240;-86
2022/12/23 06:08:55;;;;;;;98.25;41.00;;;8.20;99.90;;;;;;5029412;28;20323;-86
2022/12/23 06:11:21;;;;;;;105.90;41.55;;;8.20;99.90;;;;;;5044557;28;20279;-86
2022/12/23 06:13:48;;;;;;;125.18;43.63;;;8.20;99.90;;;;;;5052336;28;20242;-85
2022/12/23 06:16:15;;;;;;;113.35;45.22;;;8.20;99.90;;;;;;5040656;28;20237;-84
2022/12/23 06:18:42;;;;;;;104.13;44.05;;;8.10;99.90;;;;;;5032507;28;20215;-85
2022/12/23 06:21:10;;;;;;;130.80;48.15;;;8.20;99.90;;;;;;5049174;28;20219;-85
2022/12/23 06:23:37;;;;;;;106.05;40.78;;;8.20;99.90;;;;;;5057289;28;20227;-84
2022/12/23 06:26:04;;;;;;;128.85;43.78;;;8.20;99.90;;;;;;5057422;28;20184;-84
2022/12/23 06:28:31;;;;;;;138.43;46.38;;;8.20;99.90;;;;;;5047594;28;20184;-84
2022/12/23 06:30:58;;;;;;;136.93;47.33;;;8.20;99.90;;;;;;5038568;28;20184;-85
2022/12/23 06:33:25;;;;;;;135.48;45.03;;;8.20;99.90;;;;;;5037401;28;20188;-89
2022/12/23 06:35:52;;;;;;;128.88;44.45;;;8.20;99.90;;;;;;5037485;28;20177;-84
2022/12/23 06:38:20;;;;;;;144.27;48.15;;;8.40;99.90;;;;;;5042284;28;20643;-84
2022/12/23 06:40:47;;;;;;;124.38;44.15;;;8.30;99.90;;;;;;5053227;28;20220;-84
2022/12/23 06:43:14;;;;;;;127.43;44.28;;;8.30;99.90;;;;;;5056749;28;20180;-84
2022/12/23 06:45:46;;;;;;;118.35;44.83;;;8.30;99.90;;;;;;5057262;28;20176;-85
2022/12/23 06:48:12;;;;;;;120.22;45.22;;;8.40;99.90;;;;;;5054337;28;20252;-84
2022/12/23 06:50:39;;;;;;;124.47;42.83;;;8.40;99.90;;;;;;5042673;28;20289;-84
2022/12/23 06:53:06;;;;;;;131.77;46.42;;;8.30;99.90;;;;;;5036848;28;20208;-85
2022/12/23 06:55:35;;;;;;;150.98;46.03;;;8.50;99.90;;;;;;5046461;28;20215;-86
2022/12/23 06:58:01;;;;;;;101.78;39.13;;;8.50;99.90;;;;;;5046644;28;20181;-85
2022/12/23 07:00:28;;;;;;;104.70;41.05;;;8.30;99.90;;;;;;5047929;28;20244;-86
2022/12/23 07:02:55;;;;;;;100.68;38.38;;;8.40;99.90;;;;;;5040403;28;20199;-86
2022/12/23 07:05:22;;;;;;;116.25;41.20;;;8.40;99.90;;;;;;5052477;28;20234;-84
2022/12/23 07:07:49;;;;;;;121.03;41.45;;;8.40;99.90;;;;;;5051108;28;20189;-85
2022/12/23 07:10:16;;;;;;;119.72;42.58;;;8.40;99.90;;;;;;5049529;28;20220;-85
2022/12/23 07:12:44;;;;;;;100.97;42.78;;;8.50;99.90;;;;;;5047776;28;20246;-85
2022/12/23 07:15:40;;;;;;;128.93;40.83;;;8.50;99.90;;;;;;5049731;28;20233;-86
2022/12/23 07:18:13;;;;;;;137.88;41.95;;;8.40;99.90;;;;;;5055790;28;20218;-86
2022/12/23 07:20:40;;;;;;;96.82;40.40;;;8.40;99.90;;;;;;5052311;28;20220;-85
2022/12/23 07:23:07;;;;;;;118.90;39.85;;;8.40;99.90;;;;;;5060443;23;20243;-77
2022/12/23 07:25:34;;;;;;;110.72;43.40;;;8.50;99.90;;;;;;5038630;28;20223;-76
2022/12/23 07:28:02;;;;;;;115.53;41.80;;;8.40;99.90;;;;;;5042861;28;20290;-75
2022/12/23 07:30:29;;;;;;;137.05;44.75;;;8.50;99.90;;;;;;5033480;28;20224;-75
2022/12/23 07:32:56;;;;;;;107.72;40.67;;;8.40;99.90;;;;;;5029276;28;20310;-77
2022/12/23 07:35:23;;;;;;;133.30;45.53;;;8.30;99.90;;;;;;5025510;28;20197;-76
2022/12/23 07:37:52;;;;;;;156.55;44.45;;;8.20;99.90;;;;;;5024100;28;20205;-74
2022/12/23 07:40:19;;;;;;;146.68;47.17;;;8.20;99.90;;;;;;5019156;28;20319;-76
2022/12/23 07:42:48;;;;;;;174.82;49.38;;;8.10;99.90;;;;;;5026560;28;20196;-77
2022/12/23 07:45:17;;;;;;;140.85;44.10;;;8.10;99.90;;;;;;5029151;28;20571;-77
2022/12/23 07:47:44;;;;;;;132.25;43.45;;;8.10;99.90;;;;;;5022664;28;20211;-76
2022/12/23 07:50:11;;;;;;;142.40;45.72;;;8.10;99.90;;;;;;5026723;28;20642;-75
2022/12/23 07:52:38;;;;;;;142.23;45.40;;;8.10;99.90;;;;;;5018091;28;20209;-76
2022/12/23 07:55:06;;;;;;;150.68;41.17;;;8.00;99.90;;;;;;5021163;28;20233;-76
2022/12/23 07:57:36;;;;;;;158.85;46.63;;;8.00;99.90;;;;;;5027239;28;20200;-85
2022/12/23 08:00:07;;;;;;;145.63;43.65;;;8.00;99.90;;;;;;5023429;28;20733;-82
2022/12/23 08:02:35;;;;;;;152.40;45.25;;;8.00;99.90;;;;;;5027036;28;20612;-75
2022/12/23 08:05:04;;;;;;;129.18;41.13;;;7.90;99.90;;;;;;5033344;28;20307;-76
2022/12/23 08:07:31;;;;;;;134.75;40.40;;;7.80;99.90;;;;;;5029569;28;20229;-81
2022/12/23 08:09:59;;;;;;;129.88;40.75;;;7.90;99.90;;;;;;5034970;28;20223;-80
2022/12/23 08:12:26;;;;;;;153.32;41.30;;;7.90;99.90;;;;;;5038503;28;20212;-78
2022/12/23 08:14:53;;;;;;;124.80;40.20;;;8.00;99.90;;;;;;5029804;28;20200;-79
2022/12/23 08:17:20;;;;;;;118.10;40.97;;;7.90;99.90;;;;;;5032159;28;20229;-80
2022/12/23 08:19:49;;;;;;;122.70;40.80;;;8.00;99.90;;;;;;5029712;28;20225;-80
2022/12/23 08:22:16;;;;;;;135.20;39.95;;;8.00;99.90;;;;;;5037518;28;20232;-78
2022/12/23 08:24:43;;;;;;;100.97;36.65;;;8.10;99.90;;;;;;5027958;28;20291;-77
2022/12/23 08:27:10;;;;;;;123.20;39.17;;;8.00;99.90;;;;;;5025028;28;20197;-75
2022/12/23 08:29:39;;;;;;;131.63;41.95;;;8.10;99.90;;;;;;5036676;28;20211;-77
2022/12/23 08:32:06;;;;;;;114.80;38.60;;;8.10;99.90;;;;;;5029662;28;20219;-74
2022/12/23 08:34:34;;;;;;;130.05;42.70;;;8.10;99.90;;;;;;5036633;28;20797;-77
2022/12/23 08:37:02;;;;;;;128.50;43.25;;;8.10;99.90;;;;;;5025686;28;20214;-75
2022/12/23 08:39:29;;;;;;;144.20;45.20;;;8.10;99.90;;;;;;5030290;28;20220;-78
2022/12/23 08:41:57;;;;;;;129.63;42.00;;;8.10;99.90;;;;;;5027156;28;20689;-77
2022/12/23 08:44:26;;;;;;;143.18;39.80;;;8.10;99.90;;;;;;5028647;28;20227;-75
2022/12/23 08:46:53;;;;;;;121.63;40.55;;;8.10;99.90;;;;;;5036389;28;20561;-77
2022/12/23 08:49:20;;;;;;;113.40;37.13;;;8.10;99.90;;;;;;5027293;28;20347;-76
2022/12/23 08:51:48;;;;;;;140.90;41.90;;;8.10;99.90;;;;;;5022918;28;20201;-77
2022/12/23 08:54:19;;;;;;;104.70;36.67;;;8.10;99.90;;;;;;5032813;28;20204;-77
2022/12/23 08:56:46;;;;;;;117.32;40.17;;;8.10;99.90;;;;;;5040758;28;20200;-77
2022/12/23 09:01:47;;;;;;;79.10;31.70;;;8.30;99.90;;;;;;5044460;28;20219;-72
2022/12/23 09:04:14;;;;;;;102.88;36.78;;;8.30;99.90;;;;;;5056815;28;20290;-70
2022/12/23 09:06:42;;;;;;;97.18;33.05;;;8.30;99.90;;;;;;5052471;28;20217;-71
2022/12/23 09:09:11;;;;;;;85.07;31.15;;;8.20;99.90;;;;;;5054473;28;20277;-73
2022/12/23 09:11:40;;;;;;;78.78;31.70;;;8.30;99.90;;;;;;5056235;28;20626;-71
2022/12/23 09:14:09;;;;;;;77.28;32.30;;;8.40;99.90;;;;;;5041362;28;20212;-71
2022/12/23 09:16:36;;;;;;;88.90;31.60;;;8.40;99.90;;;;;;5044334;28;20243;-70
2022/12/23 09:19:03;;;;;;;94.20;34.60;;;8.50;99.90;;;;;;5045464;28;20265;-70
2022/12/23 09:21:30;;;;;;;97.32;33.25;;;8.50;99.90;;;;;;5045611;28;20350;-70
2022/12/23 09:23:57;;;;;;;81.57;32.90;;;8.60;99.90;;;;;;5047073;28;20196;-72
2022/12/23 09:26:26;;;;;;;88.82;32.95;;;8.60;99.90;;;;;;5040667;28;20211;-71
2022/12/23 09:28:55;;;;;;;81.20;30.50;;;8.70;99.90;;;;;;5035548;28;20216;-70
2022/12/23 09:31:23;;;;;;;70.57;30.80;;;8.70;99.90;;;;;;5036989;28;20209;-69
2022/12/23 09:33:52;;;;;;;67.75;29.85;;;8.70;99.90;;;;;;5038855;28;20302;-69
2022/12/23 09:36:20;;;;;;;75.28;31.40;;;8.70;99.90;;;;;;5034013;28;20275;-68
2022/12/23 09:38:47;;;;;;;79.28;31.27;;;8.80;99.90;;;;;;5037721;28;20220;-71
2022/12/23 09:41:24;;;;;;;61.30;26.92;;;8.80;99.90;;;;;;5042671;28;20215;-67
2022/12/23 09:44:03;;;;;;;62.40;29.67;;;8.80;99.90;;;;;;5054601;28;20201;-68
2022/12/23 09:46:33;;;;;;;62.42;28.33;;;8.80;99.90;;;;;;5046881;28;20710;-69
2022/12/23 09:49:04;;;;;;;69.05;28.02;;;8.80;99.90;;;;;;5044341;28;20589;-67
2022/12/23 09:51:33;;;;;;;72.80;31.88;;;8.80;99.90;;;;;;5043307;28;20557;-69
2022/12/23 09:54:05;;;;;;;58.83;28.15;;;8.90;99.90;;;;;;5050093;28;20227;-69
2022/12/23 09:56:40;;;;;;;63.63;30.05;;;9.00;99.90;;;;;;5041302;28;20578;-69
2022/12/23 09:59:21;;;;;;;78.25;31.40;;;9.10;99.90;;;;;;5046034;28;20302;-70
2022/12/23 10:01:56;;;;;;;60.25;27.13;;;9.10;99.90;;;;;;5040980;28;20237;-71
2022/12/23 10:04:45;;;;;;;52.88;25.52;;;9.10;99.90;;;;;;5039522;28;20200;-70
2022/12/23 10:07:21;;;;;;;53.92;22.85;;;9.00;99.90;;;;;;5036328;28;20236;-68
2022/12/23 10:09:51;;;;;;;50.45;23.65;;;9.10;99.90;;;;;;5040856;28;20319;-73
2022/12/23 10:12:29;;;;;;;55.50;28.35;;;9.30;99.90;;;;;;5038415;28;20196;-70
2022/12/23 10:15:00;;;;;;;48.10;23.90;;;9.30;99.90;;;;;;5034214;28;20705;-71
2022/12/23 10:17:30;;;;;;;44.22;25.83;;;9.60;99.90;;;;;;5042548;28;20218;-70
2022/12/23 10:20:00;;;;;;;41.35;23.55;;;9.90;99.90;;;;;;5036701;28;20228;-67
2022/12/23 10:22:35;;;;;;;55.17;25.38;;;10.10;99.90;;;;;;5039737;28;20198;-68
2022/12/23 10:28:24;;;;;;;40.30;23.70;;;10.00;99.90;;;;;;5040665;23;20189;-72
2022/12/23 10:31:03;;;;;;;37.15;21.13;;;10.10;99.90;;;;;;5047523;28;20308;-69
2022/12/23 10:33:40;;;;;;;47.70;24.75;;;10.10;99.90;;;;;;5043333;28;20234;-69
2022/12/23 10:36:12;;;;;;;49.22;25.85;;;10.10;99.90;;;;;;5045124;28;20618;-68
2022/12/23 10:38:51;;;;;;;50.63;27.33;;;9.80;99.90;;;;;;5050318;28;20302;-69
2022/12/23 10:41:27;;;;;;;65.10;28.10;;;9.70;99.90;;;;;;5040732;28;20382;-69
2022/12/23 10:44:21;;;;;;;50.45;26.98;;;9.50;99.90;;;;;;5038429;28;20621;-69
2022/12/23 10:46:58;;;;;;;58.70;26.75;;;9.50;99.90;;;;;;5038868;28;20279;-69
2022/12/23 10:49:36;;;;;;;57.63;26.80;;;9.50;99.90;;;;;;5045644;28;20223;-72
2022/12/23 10:52:09;;;;;;;48.50;22.90;;;9.30;99.90;;;;;;5046529;28;20315;-69
2022/12/23 10:54:37;;;;;;;48.72;22.88;;;9.40;99.90;;;;;;5049520;28;20271;-69
2022/12/23 10:57:06;;;;;;;58.00;25.30;;;9.20;99.90;;;;;;5041570;28;20282;-71
2022/12/23 10:59:35;;;;;;;53.63;28.30;;;9.30;99.90;;;;;;5044027;28;20247;-70
2022/12/23 11:02:19;;;;;;;57.38;26.50;;;9.30;99.90;;;;;;5047031;28;20695;-70
2022/12/23 11:04:48;;;;;;;52.47;24.88;;;9.40;99.90;;;;;;5043384;28;20232;-71
2022/12/23 11:07:20;;;;;;;47.53;21.65;;;9.50;99.90;;;;;;5034670;28;20861;-72
2022/12/23 11:09:52;;;;;;;44.03;22.33;;;9.50;99.90;;;;;;5032698;28;20314;-71
2022/12/23 11:12:24;;;;;;;47.90;25.08;;;9.70;99.90;;;;;;5033483;28;20296;-71
2022/12/23 11:14:53;;;;;;;39.85;22.50;;;9.80;99.90;;;;;;5033719;28;20204;-72
2022/12/23 11:17:26;;;;;;;45.30;22.70;;;10.10;99.90;;;;;;5035614;28;20203;-75
2022/12/23 11:20:11;;;;;;;40.50;22.92;;;10.30;99.90;;;;;;5034923;28;20628;-72
2022/12/23 11:22:48;;;;;;;40.78;21.63;;;10.50;99.90;;;;;;5034267;28;20684;-71
2022/12/23 11:25:28;;;;;;;44.75;22.45;;;10.70;99.90;;;;;;5041853;28;20193;-69
2022/12/23 11:27:58;;;;;;;46.40;23.40;;;10.70;99.90;;;;;;5041202;28;20416;-68
2022/12/23 11:30:25;;;;;;;45.40;23.73;;;10.70;99.90;;;;;;5042297;28;20337;-67
2022/12/23 11:32:55;;;;;;;37.30;19.23;;;10.60;99.90;;;;;;5046599;28;20328;-71
2022/12/23 11:35:27;;;;;;;44.00;22.25;;;10.80;99.90;;;;;;5039904;28;20254;-70
2022/12/23 11:37:55;;;;;;;45.40;24.95;;;11.10;99.90;;;;;;5031528;28;20242;-70
2022/12/23 11:40:26;;;;;;;44.20;23.85;;;11.40;99.90;;;;;;5047946;28;20591;-69
2022/12/23 11:42:58;;;;;;;49.88;24.80;;;11.30;99.90;;;;;;5053211;28;20305;-71
2022/12/23 11:45:28;;;;;;;50.92;26.25;;;11.00;99.90;;;;;;5035389;28;20202;-69
2022/12/23 11:47:56;;;;;;;48.58;25.05;;;10.80;99.90;;;;;;5042197;28;20284;-69
2022/12/23 11:50:30;;;;;;;47.78;22.05;;;10.80;99.90;;;;;;5037571;28;20284;-69
2022/12/23 11:53:10;;;;;;;50.83;25.25;;;11.00;99.90;;;;;;5048437;28;20217;-69
2022/12/23 11:55:42;;;;;;;41.28;24.08;;;10.90;99.90;;;;;;5044406;28;20203;-69
2022/12/23 11:58:19;;;;;;;53.30;23.83;;;10.90;99.90;;;;;;5046089;28;20280;-70
2022/12/23 12:00:53;;;;;;;43.30;22.10;;;10.80;99.90;;;;;;5043004;28;20775;-70
2022/12/23 12:03:24;;;;;;;52.05;24.45;;;10.80;99.90;;;;;;5051179;28;20197;-69
2022/12/23 12:05:56;;;;;;;48.22;23.50;;;10.80;99.90;;;;;;5038867;28;20656;-69
2022/12/23 12:08:27;;;;;;;45.40;22.33;;;10.80;99.90;;;;;;5050012;28;20328;-68
2022/12/23 12:11:01;;;;;;;56.60;24.98;;;10.60;99.90;;;;;;5043704;28;20562;-70
2022/12/23 12:13:31;;;;;;;56.75;26.70;;;10.50;99.90;;;;;;5042705;28;20316;-71
2022/12/23 12:16:16;;;;;;;48.92;24.55;;;10.40;99.90;;;;;;5048059;28;20256;-70
2022/12/23 12:18:46;;;;;;;47.33;21.63;;;10.50;99.90;;;;;;5047642;28;20580;-69
2022/12/23 12:21:17;;;;;;;47.42;24.10;;;10.50;99.90;;;;;;5042030;28;20209;-70
2022/12/23 12:23:47;;;;;;;55.10;26.70;;;10.60;99.90;;;;;;5044586;28;20231;-71
2022/12/23 12:26:22;;;;;;;49.05;22.75;;;10.60;99.90;;;;;;5053448;28;20196;-70
2022/12/23 12:28:53;;;;;;;47.00;24.63;;;10.70;99.90;;;;;;5045918;28;20301;-70
2022/12/23 12:31:24;;;;;;;47.63;22.90;;;10.80;99.90;;;;;;5046223;28;20289;-70
2022/12/23 12:33:58;;;;;;;44.45;21.20;;;10.80;99.90;;;;;;5049402;28;20245;-68
2022/12/23 12:36:35;;;;;;;44.15;22.67;;;10.90;99.90;;;;;;5048196;28;20304;-69
2022/12/23 12:39:02;;;;;;;45.60;21.25;;;10.90;99.90;;;;;;5049070;28;20248;-70
2022/12/23 12:41:34;;;;;;;38.17;21.25;;;10.90;99.90;;;;;;5048333;28;20264;-71
2022/12/23 12:44:13;;;;;;;44.42;24.50;;;11.00;99.90;;;;;;5043594;28;20198;-68
2022/12/23 12:46:44;;;;;;;49.38;21.23;;;11.10;99.90;;;;;;5043816;28;20217;-69
2022/12/23 12:49:19;;;;;;;43.50;22.55;;;11.10;99.90;;;;;;5046563;28;20309;-69
2022/12/23 12:51:54;;;;;;;40.10;22.85;;;11.00;99.90;;;;;;5046809;28;20715;-69
2022/12/23 12:54:30;;;;;;;38.80;20.45;;;11.00;99.90;;;;;;5042626;28;20213;-71
2022/12/23 12:56:58;;;;;;;39.78;22.63;;;10.90;99.90;;;;;;5048389;28;20251;-71
2022/12/23 12:59:34;;;;;;;41.33;21.33;;;10.90;99.90;;;;;;5047904;28;20257;-71
2022/12/23 13:02:30;;;;;;;46.67;23.63;;;10.80;99.90;;;;;;5040527;28;20229;-69
2022/12/23 13:05:22;;;;;;;50.58;23.75;;;10.60;99.90;;;;;;5043229;28;20268;-69
2022/12/23 13:08:04;;;;;;;43.25;21.17;;;10.50;99.90;;;;;;5038185;28;20202;-70
2022/12/23 13:10:40;;;;;;;39.65;21.10;;;10.40;99.90;;;;;;5045507;28;20224;-71
2022/12/23 13:13:23;;;;;;;41.50;21.20;;;10.40;99.90;;;;;;5044027;28;20213;-70
2022/12/23 13:15:54;;;;;;;39.42;21.67;;;10.40;99.90;;;;;;5044154;28;20206;-70
2022/12/23 13:18:34;;;;;;;51.42;22.35;;;10.30;99.90;;;;;;5032582;28;20291;-70
2022/12/23 13:21:07;;;;;;;44.05;22.40;;;10.20;99.90;;;;;;5034650;28;20240;-71
2022/12/23 13:23:40;;;;;;;42.85;20.95;;;10.30;99.90;;;;;;5034870;28;20234;-69
2022/12/23 13:26:17;;;;;;;39.75;19.67;;;10.20;99.90;;;;;;5035640;28;20289;-70